Time;durP1;ratioP1;P1;durP2;ratioP2;P2;SDS_P1;SDS_P2;PMS_P1;PMS_P2;Temp;Humidity;BMP_temperature;BMP_pressure;BME280_temperature;BME280_humidity;BME280_pressure;Samples;Min_cycle;Max_cycle;Signal;HPM_P1;HPM_P2
2021/08/08 00:01:34;;;;;;;1.90;1.60;;;19.60;99.90;;;;;;5106751;27;20987;-80
2021/08/08 00:04:03;;;;;;;2.20;2.00;;;19.50;99.90;;;;;;5106024;28;20486;-80
2021/08/08 00:06:30;;;;;;;1.83;1.73;;;19.50;99.90;;;;;;5102531;28;22746;-81
2021/08/08 00:08:57;;;;;;;1.97;1.87;;;19.50;99.90;;;;;;5107644;28;20567;-79
2021/08/08 00:11:24;;;;;;;2.40;1.83;;;19.50;99.90;;;;;;5100622;28;20471;-80
2021/08/08 00:13:51;;;;;;;2.03;1.87;;;19.50;99.90;;;;;;5102459;28;20449;-79
2021/08/08 00:16:20;;;;;;;3.37;2.03;;;19.40;99.90;;;;;;5097590;28;20491;-80
2021/08/08 00:18:47;;;;;;;5.20;2.30;;;19.40;99.90;;;;;;5098870;28;20456;-80
2021/08/08 00:21:15;;;;;;;2.43;2.23;;;19.40;99.90;;;;;;5104731;28;20949;-80
2021/08/08 00:23:42;;;;;;;2.40;2.20;;;19.40;99.90;;;;;;5106858;28;20527;-80
2021/08/08 00:26:09;;;;;;;2.00;1.80;;;19.40;99.90;;;;;;5100559;28;20449;-80
2021/08/08 00:28:36;;;;;;;6.00;3.13;;;19.40;99.90;;;;;;5098069;28;20600;-81
2021/08/08 00:31:04;;;;;;;3.50;3.20;;;19.40;99.90;;;;;;5099021;28;20555;-81
2021/08/08 00:33:30;;;;;;;3.23;2.50;;;19.30;99.90;;;;;;5104184;28;20546;-80
2021/08/08 00:35:57;;;;;;;3.60;2.40;;;19.30;99.90;;;;;;5096549;28;20445;-81
2021/08/08 00:38:27;;;;;;;3.03;2.30;;;19.30;99.90;;;;;;5096226;28;20450;-80
2021/08/08 00:40:53;;;;;;;4.63;2.80;;;19.30;99.90;;;;;;5095341;28;20476;-82
2021/08/08 00:43:20;;;;;;;7.80;2.40;;;19.30;99.90;;;;;;5097025;28;20460;-80
2021/08/08 00:45:47;;;;;;;3.10;2.80;;;19.30;99.90;;;;;;5096577;28;20454;-80
2021/08/08 00:48:14;;;;;;;5.10;2.57;;;19.30;99.90;;;;;;5101942;28;20522;-80
2021/08/08 00:50:41;;;;;;;12.00;2.70;;;19.30;99.90;;;;;;5106091;28;20495;-80
2021/08/08 00:53:08;;;;;;;4.00;2.80;;;19.30;99.90;;;;;;5102252;28;20707;-82
2021/08/08 00:55:36;;;;;;;3.40;2.33;;;19.30;99.90;;;;;;5103753;28;20483;-80
2021/08/08 00:58:03;;;;;;;3.63;2.10;;;19.30;99.90;;;;;;5099464;28;20986;-80
2021/08/08 01:00:32;;;;;;;2.70;2.50;;;19.30;99.90;;;;;;5106898;27;20463;-80
2021/08/08 01:03:02;;;;;;;2.80;2.57;;;19.30;99.90;;;;;;5102452;28;20551;-80
2021/08/08 01:05:34;;;;;;;2.67;2.43;;;19.30;99.90;;;;;;5101941;28;20459;-80
2021/08/08 01:08:05;;;;;;;7.77;3.33;;;19.30;99.90;;;;;;5098618;28;20514;-82
2021/08/08 01:10:33;;;;;;;2.90;2.30;;;19.20;99.90;;;;;;5105711;28;20489;-82
2021/08/08 01:13:04;;;;;;;5.00;3.70;;;19.20;99.90;;;;;;5100516;28;20483;-80
2021/08/08 01:15:31;;;;;;;3.60;2.00;;;19.20;99.90;;;;;;5098732;28;20461;-80
2021/08/08 01:17:59;;;;;;;3.00;2.47;;;19.20;99.90;;;;;;5105713;28;20453;-80
2021/08/08 01:20:29;;;;;;;3.10;2.50;;;19.20;99.90;;;;;;5096321;28;20467;-82
2021/08/08 01:23:00;;;;;;;9.70;3.87;;;19.20;99.90;;;;;;5097924;28;20795;-80
2021/08/08 01:25:30;;;;;;;3.23;2.30;;;19.20;99.90;;;;;;5100785;28;20506;-81
2021/08/08 01:27:59;;;;;;;8.67;2.60;;;19.20;99.90;;;;;;5104837;28;20457;-80
2021/08/08 01:30:27;;;;;;;3.10;2.30;;;19.20;99.90;;;;;;5102867;28;20477;-81
2021/08/08 01:33:01;;;;;;;3.87;3.03;;;19.20;99.90;;;;;;5097476;28;20466;-80
2021/08/08 01:35:29;;;;;;;3.83;2.67;;;19.20;99.90;;;;;;5098638;28;20509;-82
2021/08/08 01:37:56;;;;;;;3.30;2.40;;;19.20;99.90;;;;;;5096557;28;20468;-81
2021/08/08 01:40:29;;;;;;;4.53;2.30;;;19.10;99.90;;;;;;5103357;28;20473;-81
2021/08/08 01:43:00;;;;;;;6.00;2.63;;;19.10;99.90;;;;;;5104691;28;20441;-80
2021/08/08 01:45:28;;;;;;;9.83;2.50;;;19.10;99.90;;;;;;5103664;28;20457;-80
2021/08/08 01:47:59;;;;;;;5.37;2.93;;;19.10;99.90;;;;;;5103779;28;20498;-81
2021/08/08 01:50:31;;;;;;;3.67;2.97;;;19.10;99.90;;;;;;5101488;28;20497;-81
2021/08/08 01:52:58;;;;;;;3.50;3.20;;;19.10;99.90;;;;;;5100285;28;20456;-81
2021/08/08 01:55:25;;;;;;;4.90;2.43;;;19.10;99.90;;;;;;5097543;28;20580;-80
2021/08/08 01:57:53;;;;;;;5.80;2.47;;;19.10;99.90;;;;;;5104644;28;20946;-80
2021/08/08 02:00:25;;;;;;;4.10;2.30;;;19.10;99.90;;;;;;5096565;27;20468;-80
2021/08/08 02:02:55;;;;;;;4.23;2.50;;;19.10;99.90;;;;;;5094614;28;20477;-81
2021/08/08 02:05:23;;;;;;;6.37;2.40;;;19.10;99.90;;;;;;5096007;28;20452;-82
2021/08/08 02:07:51;;;;;;;8.10;4.13;;;19.10;99.90;;;;;;5097823;28;20454;-81
2021/08/08 02:10:18;;;;;;;11.03;2.70;;;19.10;99.90;;;;;;5104605;28;20484;-80
2021/08/08 02:12:45;;;;;;;6.27;3.10;;;19.10;99.90;;;;;;5108161;28;20944;-81
2021/08/08 02:15:12;;;;;;;3.90;2.67;;;19.10;99.90;;;;;;5099287;28;20464;-83
2021/08/08 02:17:42;;;;;;;8.77;2.83;;;19.10;99.90;;;;;;5097960;28;20458;-80
2021/08/08 02:20:12;;;;;;;3.90;2.50;;;19.00;99.90;;;;;;5095943;28;20741;-81
2021/08/08 02:22:39;;;;;;;10.07;2.90;;;19.00;99.90;;;;;;5093269;28;20464;-81
2021/08/08 02:25:06;;;;;;;8.13;2.57;;;19.00;99.90;;;;;;5106052;28;20460;-80
2021/08/08 02:27:34;;;;;;;5.57;2.80;;;19.00;99.90;;;;;;5103863;28;20457;-80
2021/08/08 02:30:00;;;;;;;6.10;3.17;;;19.00;99.90;;;;;;5102136;28;20476;-81
2021/08/08 02:32:27;;;;;;;6.20;2.77;;;18.90;99.90;;;;;;5103750;28;20534;-81
2021/08/08 02:34:55;;;;;;;7.80;4.00;;;18.90;99.90;;;;;;5105938;28;20452;-82
2021/08/08 02:37:22;;;;;;;5.23;2.73;;;18.90;99.90;;;;;;5098155;28;20469;-81
2021/08/08 02:39:49;;;;;;;7.03;3.27;;;18.90;99.90;;;;;;5099380;28;20982;-81
2021/08/08 02:42:16;;;;;;;6.70;2.30;;;18.80;99.90;;;;;;5098265;28;20468;-81
2021/08/08 02:44:43;;;;;;;9.37;2.60;;;18.80;99.90;;;;;;5099859;28;20453;-81
2021/08/08 02:47:10;;;;;;;10.53;2.73;;;18.80;99.90;;;;;;5102238;28;20481;-82
2021/08/08 02:49:37;;;;;;;7.17;3.27;;;18.80;99.90;;;;;;5101885;28;20516;-80
2021/08/08 02:52:07;;;;;;;5.67;2.50;;;18.80;99.90;;;;;;5101390;28;20509;-82
2021/08/08 02:54:35;;;;;;;9.23;2.97;;;18.80;99.90;;;;;;5100710;28;20792;-81
2021/08/08 02:57:03;;;;;;;5.53;2.70;;;18.70;99.90;;;;;;5101963;28;20460;-81
2021/08/08 02:59:29;;;;;;;6.70;3.00;;;18.70;99.90;;;;;;5101234;28;20496;-81
2021/08/08 03:01:57;;;;;;;6.37;2.70;;;18.70;99.90;;;;;;5091130;28;20469;-81
2021/08/08 03:04:23;;;;;;;5.00;3.30;;;18.70;99.90;;;;;;5100839;28;20498;-81
2021/08/08 03:06:50;;;;;;;6.43;2.80;;;18.70;99.90;;;;;;5097404;28;20459;-81
2021/08/08 03:09:19;;;;;;;10.20;3.43;;;18.70;99.90;;;;;;5100608;28;20968;-81
2021/08/08 03:11:46;;;;;;;6.97;3.60;;;18.70;99.90;;;;;;5098020;28;20481;-80
2021/08/08 03:14:16;;;;;;;10.20;3.17;;;18.70;99.90;;;;;;5102239;28;20466;-81
2021/08/08 03:16:43;;;;;;;3.63;2.50;;;18.70;99.90;;;;;;5092978;28;20471;-80
2021/08/08 03:19:11;;;;;;;5.37;2.73;;;18.70;99.90;;;;;;5099032;28;20482;-79
2021/08/08 03:21:38;;;;;;;6.43;3.00;;;18.70;99.90;;;;;;5103059;28;20456;-82
2021/08/08 03:24:05;;;;;;;6.47;3.43;;;18.70;99.90;;;;;;5093889;28;20462;-79
2021/08/08 03:26:35;;;;;;;10.13;4.07;;;18.70;99.90;;;;;;5100727;28;20460;-81
2021/08/08 03:29:01;;;;;;;4.87;2.73;;;18.70;99.90;;;;;;5098615;28;20465;-80
2021/08/08 03:31:28;;;;;;;5.20;3.10;;;18.70;99.90;;;;;;5100346;28;20533;-80
2021/08/08 03:33:55;;;;;;;4.70;3.13;;;18.60;99.90;;;;;;5095415;28;20453;-80
2021/08/08 03:36:24;;;;;;;4.57;2.47;;;18.70;99.90;;;;;;5099718;28;20969;-81
2021/08/08 03:38:51;;;;;;;6.27;3.00;;;18.60;99.90;;;;;;5100758;28;20457;-81
2021/08/08 03:41:18;;;;;;;3.67;3.23;;;18.60;99.90;;;;;;5097826;28;20458;-80
2021/08/08 03:43:48;;;;;;;18.10;4.33;;;18.60;99.90;;;;;;5100393;28;20519;-79
2021/08/08 03:46:15;;;;;;;5.47;2.70;;;18.60;99.90;;;;;;5096406;28;20647;-79
2021/08/08 03:48:42;;;;;;;6.73;2.83;;;18.60;99.90;;;;;;5102454;28;20518;-80
2021/08/08 03:51:09;;;;;;;5.10;2.90;;;18.50;99.90;;;;;;5100692;28;20576;-80
2021/08/08 03:53:36;;;;;;;7.13;2.80;;;18.50;99.90;;;;;;5100691;28;20977;-80
2021/08/08 03:56:03;;;;;;;13.33;3.50;;;18.50;99.90;;;;;;5100908;28;21102;-79
2021/08/08 03:58:30;;;;;;;5.90;3.37;;;18.50;99.90;;;;;;5100817;28;20459;-79
2021/08/08 04:01:00;;;;;;;6.33;2.90;;;18.50;99.90;;;;;;5106199;28;20456;-80
2021/08/08 04:03:28;;;;;;;4.03;2.70;;;18.50;99.90;;;;;;5099956;28;20472;-79
2021/08/08 04:05:56;;;;;;;4.07;2.90;;;18.40;99.90;;;;;;5095347;28;20557;-80
2021/08/08 04:08:23;;;;;;;12.67;3.23;;;18.40;99.90;;;;;;5095277;28;20808;-81
2021/08/08 04:10:50;;;;;;;7.10;3.00;;;18.50;99.90;;;;;;5100381;28;20886;-80
2021/08/08 04:13:17;;;;;;;5.57;3.57;;;18.50;99.90;;;;;;5104923;28;20451;-80
2021/08/08 04:15:44;;;;;;;3.90;3.00;;;18.50;99.90;;;;;;5098693;28;20456;-80
2021/08/08 04:18:13;;;;;;;10.00;3.33;;;18.50;99.90;;;;;;5099600;28;20659;-79
2021/08/08 04:20:41;;;;;;;7.33;3.80;;;18.40;99.90;;;;;;5107252;28;20459;-80
2021/08/08 04:23:10;;;;;;;7.90;3.33;;;18.40;99.90;;;;;;5097313;28;20457;-79
2021/08/08 04:25:38;;;;;;;8.40;3.77;;;18.40;99.90;;;;;;5102509;28;20464;-79
2021/08/08 04:28:07;;;;;;;9.53;3.97;;;18.40;99.90;;;;;;5097480;28;20923;-79
2021/08/08 04:30:34;;;;;;;6.00;3.70;;;18.40;99.90;;;;;;5104315;28;20522;-79
2021/08/08 04:33:02;;;;;;;9.43;3.47;;;18.40;99.90;;;;;;5095421;28;20465;-79
2021/08/08 04:35:30;;;;;;;8.53;3.40;;;18.40;99.90;;;;;;5093803;28;20476;-81
2021/08/08 04:37:58;;;;;;;6.30;3.80;;;18.40;99.90;;;;;;5104019;28;20821;-81
2021/08/08 04:40:27;;;;;;;7.97;3.17;;;18.40;99.90;;;;;;5102167;28;20532;-81
2021/08/08 04:42:54;;;;;;;9.73;3.77;;;18.40;99.90;;;;;;5103695;28;20468;-80
2021/08/08 04:45:21;;;;;;;8.87;4.83;;;18.40;99.90;;;;;;5102826;28;20474;-80
2021/08/08 04:47:48;;;;;;;4.43;3.17;;;18.40;99.90;;;;;;5096311;28;20476;-79
2021/08/08 04:50:15;;;;;;;6.20;3.37;;;18.40;99.90;;;;;;5101286;28;20744;-79
2021/08/08 04:52:46;;;;;;;12.30;3.93;;;18.40;99.90;;;;;;5097317;28;21030;-79
2021/08/08 04:55:13;;;;;;;6.93;3.47;;;18.40;99.90;;;;;;5102325;28;20976;-81
2021/08/08 04:57:40;;;;;;;6.70;3.13;;;18.40;99.90;;;;;;5100787;28;20455;-80
2021/08/08 05:00:09;;;;;;;7.33;3.10;;;18.40;99.90;;;;;;5105711;27;20460;-80
2021/08/08 05:02:36;;;;;;;10.50;3.77;;;18.50;99.90;;;;;;5100848;28;20490;-80
2021/08/08 05:05:05;;;;;;;6.80;3.47;;;18.50;99.90;;;;;;5097086;28;20473;-79
2021/08/08 05:07:32;;;;;;;9.70;3.80;;;18.50;99.90;;;;;;5100612;28;20472;-80
2021/08/08 05:10:00;;;;;;;9.63;3.53;;;18.50;99.90;;;;;;5106384;28;20449;-81
2021/08/08 05:12:27;;;;;;;10.00;3.20;;;18.50;99.90;;;;;;5101890;28;20452;-80
2021/08/08 05:14:54;;;;;;;9.47;3.20;;;18.50;99.90;;;;;;5101157;28;20994;-79
2021/08/08 05:17:21;;;;;;;7.77;4.00;;;18.60;99.90;;;;;;5104920;28;20472;-79
2021/08/08 05:19:48;;;;;;;8.43;3.17;;;18.60;99.90;;;;;;5101053;28;20919;-80
2021/08/08 05:22:14;;;;;;;5.67;2.83;;;18.60;99.90;;;;;;5105170;28;20461;-79
2021/08/08 05:24:41;;;;;;;12.67;3.50;;;18.60;99.90;;;;;;5102342;28;20470;-79
2021/08/08 05:27:09;;;;;;;7.00;2.93;;;18.60;99.90;;;;;;5103557;28;20453;-79
2021/08/08 05:29:36;;;;;;;7.03;3.10;;;18.60;99.90;;;;;;5100116;28;20462;-79
2021/08/08 05:32:04;;;;;;;8.30;3.10;;;18.60;99.90;;;;;;5103063;28;20499;-81
2021/08/08 05:34:30;;;;;;;6.80;3.20;;;18.60;99.90;;;;;;5100545;28;20455;-79
2021/08/08 05:36:57;;;;;;;4.30;3.37;;;18.60;99.90;;;;;;5101402;28;20459;-80
2021/08/08 05:39:24;;;;;;;9.90;3.40;;;18.60;99.90;;;;;;5101066;28;20889;-81
2021/08/08 05:41:51;;;;;;;8.30;3.77;;;18.60;99.90;;;;;;5100991;28;20851;-79
2021/08/08 05:44:19;;;;;;;6.53;3.13;;;18.60;99.90;;;;;;5097592;28;20464;-79
2021/08/08 05:46:46;;;;;;;4.67;3.63;;;18.60;99.90;;;;;;5098488;28;20964;-81
2021/08/08 05:49:13;;;;;;;3.40;2.80;;;18.70;99.90;;;;;;5097614;28;20475;-80
2021/08/08 05:51:40;;;;;;;6.60;3.20;;;18.70;99.90;;;;;;5105401;28;20479;-79
2021/08/08 05:54:07;;;;;;;3.20;2.77;;;18.70;99.90;;;;;;5099447;28;20448;-79
2021/08/08 05:56:34;;;;;;;3.90;2.93;;;18.70;99.90;;;;;;5095290;28;20465;-79
2021/08/08 05:59:01;;;;;;;3.70;3.33;;;18.70;99.90;;;;;;5100987;28;20461;-79
2021/08/08 06:01:30;;;;;;;9.53;3.20;;;18.70;99.90;;;;;;5102039;27;21144;-79
2021/08/08 06:03:57;;;;;;;4.63;2.67;;;18.70;99.90;;;;;;5095659;28;20563;-79
2021/08/08 06:06:23;;;;;;;7.93;3.00;;;18.70;99.90;;;;;;5097074;28;20454;-80
2021/08/08 06:08:50;;;;;;;11.43;3.47;;;18.70;99.90;;;;;;5100220;28;20930;-81
2021/08/08 06:11:17;;;;;;;8.93;3.60;;;18.70;99.90;;;;;;5097071;28;20488;-79
2021/08/08 06:13:44;;;;;;;10.50;3.53;;;18.70;99.90;;;;;;5097230;28;20466;-79
2021/08/08 06:16:11;;;;;;;5.70;2.90;;;18.80;99.90;;;;;;5100949;28;20543;-79
2021/08/08 06:18:40;;;;;;;8.53;3.10;;;18.80;99.90;;;;;;5098527;28;20453;-79
2021/08/08 06:21:07;;;;;;;4.00;3.00;;;18.80;99.90;;;;;;5098141;28;20480;-79
2021/08/08 06:23:34;;;;;;;14.47;2.93;;;18.80;99.90;;;;;;5100835;28;20472;-79
2021/08/08 06:26:01;;;;;;;5.00;2.77;;;18.90;99.90;;;;;;5104160;28;20467;-80
2021/08/08 06:28:28;;;;;;;7.67;3.23;;;18.90;99.90;;;;;;5102734;28;20453;-78
2021/08/08 06:30:55;;;;;;;6.53;4.40;;;18.90;99.90;;;;;;5100881;28;20552;-79
2021/08/08 06:33:22;;;;;;;7.00;3.00;;;18.90;99.90;;;;;;5101968;28;20461;-80
2021/08/08 06:35:52;;;;;;;5.40;2.83;;;18.90;99.90;;;;;;5099911;28;20457;-79
2021/08/08 06:38:20;;;;;;;4.90;2.90;;;18.90;99.90;;;;;;5099700;28;20449;-79
2021/08/08 06:40:47;;;;;;;8.10;3.17;;;18.90;99.90;;;;;;5102732;28;20480;-81
2021/08/08 06:43:14;;;;;;;5.33;3.13;;;18.90;99.90;;;;;;5099479;28;20460;-79
2021/08/08 06:45:41;;;;;;;5.20;2.80;;;18.90;99.90;;;;;;5096581;28;20976;-79
2021/08/08 06:48:08;;;;;;;6.90;3.30;;;18.90;99.90;;;;;;5092709;28;20468;-78
2021/08/08 06:50:35;;;;;;;7.53;2.73;;;19.00;99.90;;;;;;5100013;28;20463;-79
2021/08/08 06:53:03;;;;;;;5.83;2.80;;;19.00;99.90;;;;;;5099866;28;20447;-79
2021/08/08 06:55:30;;;;;;;4.60;3.40;;;19.00;99.90;;;;;;5095914;28;20458;-79
2021/08/08 06:57:57;;;;;;;7.43;3.53;;;19.00;99.90;;;;;;5097254;28;20480;-79
2021/08/08 07:00:24;;;;;;;8.30;3.93;;;19.00;99.90;;;;;;5103542;28;20949;-79
2021/08/08 07:02:51;;;;;;;4.47;3.40;;;19.00;99.90;;;;;;5099494;28;20474;-79
2021/08/08 07:05:18;;;;;;;7.67;3.53;;;19.00;99.90;;;;;;5097721;28;20480;-80
2021/08/08 07:07:45;;;;;;;6.37;3.27;;;19.00;99.90;;;;;;5100731;28;20475;-79
2021/08/08 07:10:13;;;;;;;5.03;3.30;;;19.00;99.90;;;;;;5097777;28;20460;-78
2021/08/08 07:12:40;;;;;;;3.97;3.10;;;19.00;99.90;;;;;;5097033;28;21038;-80
2021/08/08 07:15:08;;;;;;;6.23;3.17;;;19.00;99.90;;;;;;5097174;28;20468;-79
2021/08/08 07:17:35;;;;;;;6.00;3.20;;;19.00;99.90;;;;;;5096352;28;20459;-79
2021/08/08 07:20:03;;;;;;;6.63;3.13;;;19.00;99.90;;;;;;5092470;28;20461;-79
2021/08/08 07:22:30;;;;;;;5.43;3.07;;;19.10;99.90;;;;;;5099564;28;20481;-79
2021/08/08 07:24:57;;;;;;;5.73;3.40;;;19.10;99.90;;;;;;5095862;28;20445;-79
2021/08/08 07:27:26;;;;;;;5.77;3.07;;;19.10;99.90;;;;;;5100101;28;20460;-81
2021/08/08 07:29:53;;;;;;;6.23;3.40;;;19.20;99.90;;;;;;5091801;28;21433;-78
2021/08/08 07:32:21;;;;;;;11.83;3.80;;;19.20;99.90;;;;;;5095064;28;20482;-78
2021/08/08 07:34:47;;;;;;;8.07;3.57;;;19.20;99.90;;;;;;5099931;28;20449;-79
2021/08/08 07:37:14;;;;;;;10.13;3.20;;;19.20;99.90;;;;;;5096827;28;20458;-80
2021/08/08 07:39:41;;;;;;;7.23;3.50;;;19.30;99.90;;;;;;5099549;28;20567;-79
2021/08/08 07:42:08;;;;;;;9.13;3.57;;;19.30;99.90;;;;;;5098866;28;20453;-79
2021/08/08 07:44:37;;;;;;;7.97;3.00;;;19.30;99.90;;;;;;5105310;28;20463;-81
2021/08/08 07:47:04;;;;;;;7.67;3.20;;;19.30;99.90;;;;;;5096407;28;20716;-80
2021/08/08 07:49:31;;;;;;;6.80;2.80;;;19.40;99.90;;;;;;5100599;28;20454;-78
2021/08/08 07:51:57;;;;;;;9.87;3.13;;;19.40;99.90;;;;;;5100250;28;20834;-79
2021/08/08 07:54:24;;;;;;;6.87;3.87;;;19.40;99.90;;;;;;5103233;28;20475;-81
2021/08/08 07:56:51;;;;;;;6.07;3.90;;;19.40;99.90;;;;;;5100070;28;20534;-79
2021/08/08 07:59:18;;;;;;;6.93;3.53;;;19.50;99.90;;;;;;5100949;28;20576;-80
2021/08/08 08:02:28;;;;;;;7.03;3.43;;;19.50;99.90;;;;;;5096881;27;20474;-79
2021/08/08 08:05:24;;;;;;;8.73;3.90;;;19.50;99.90;;;;;;5055432;28;20454;-79
2021/08/08 08:11:04;;;;;;;7.43;3.30;;;19.70;99.90;;;;;;4868239;29;20497;-81
2021/08/08 08:13:31;;;;;;;7.90;3.60;;;19.70;99.90;;;;;;4924111;28;20461;-79
2021/08/08 08:15:58;;;;;;;11.43;3.27;;;19.70;99.90;;;;;;5038487;28;20483;-79
2021/08/08 08:18:25;;;;;;;6.40;2.70;;;19.70;99.90;;;;;;5095230;28;20857;-80
2021/08/08 08:20:52;;;;;;;8.77;3.40;;;19.70;99.90;;;;;;5095065;28;20465;-79
2021/08/08 08:23:21;;;;;;;6.77;3.80;;;19.80;99.90;;;;;;5102863;28;20465;-80
2021/08/08 08:25:48;;;;;;;5.57;3.07;;;19.80;99.90;;;;;;5103919;28;20458;-79
2021/08/08 08:28:16;;;;;;;6.43;3.10;;;19.90;99.90;;;;;;5101370;28;20552;-80
2021/08/08 08:30:43;;;;;;;8.97;2.93;;;19.90;99.90;;;;;;5097828;28;20554;-81
2021/08/08 08:33:10;;;;;;;7.53;3.90;;;20.00;99.90;;;;;;5095287;28;20480;-79
2021/08/08 08:35:37;;;;;;;10.73;3.37;;;20.00;99.90;;;;;;5103139;28;20468;-79
2021/08/08 08:38:04;;;;;;;7.37;3.30;;;20.00;99.90;;;;;;5102805;28;20485;-79
2021/08/08 08:40:35;;;;;;;6.23;3.30;;;20.00;99.90;;;;;;5099364;28;20916;-81
2021/08/08 08:43:03;;;;;;;7.40;2.90;;;20.00;99.90;;;;;;5100851;28;20982;-80
2021/08/08 08:45:34;;;;;;;5.03;3.20;;;20.10;99.90;;;;;;5103341;28;20514;-79
2021/08/08 08:48:02;;;;;;;6.93;3.67;;;20.10;99.90;;;;;;5099716;28;21008;-79
2021/08/08 08:50:29;;;;;;;6.10;3.33;;;20.10;99.90;;;;;;5106076;28;20457;-78
2021/08/08 08:52:56;;;;;;;3.80;3.37;;;20.10;99.90;;;;;;5101115;28;20572;-79
2021/08/08 08:55:23;;;;;;;8.90;3.30;;;20.10;99.90;;;;;;5098105;28;20516;-79
2021/08/08 08:57:50;;;;;;;5.90;3.40;;;20.20;99.90;;;;;;5102153;28;20966;-79
2021/08/08 09:00:17;;;;;;;8.80;3.10;;;20.10;99.90;;;;;;5100330;27;20548;-79
2021/08/08 09:02:46;;;;;;;5.60;3.00;;;20.10;99.90;;;;;;5094556;28;20470;-79
2021/08/08 09:05:13;;;;;;;4.50;2.87;;;20.10;99.90;;;;;;5100937;28;20924;-79
2021/08/08 09:07:40;;;;;;;6.37;3.20;;;20.20;99.90;;;;;;5093194;28;20450;-79
2021/08/08 09:10:11;;;;;;;7.27;3.53;;;20.20;99.90;;;;;;5102239;28;20456;-79
2021/08/08 09:12:38;;;;;;;7.13;2.63;;;20.30;99.90;;;;;;5100810;28;20505;-79
2021/08/08 09:15:06;;;;;;;6.03;3.30;;;20.30;99.90;;;;;;5099394;28;20574;-79
2021/08/08 09:17:37;;;;;;;7.63;3.70;;;20.30;99.90;;;;;;5098302;28;20469;-81
2021/08/08 09:20:08;;;;;;;6.30;3.37;;;20.40;99.90;;;;;;5098546;28;20513;-79
2021/08/08 09:22:36;;;;;;;8.57;3.30;;;20.40;99.90;;;;;;5103059;28;20464;-80
2021/08/08 09:25:04;;;;;;;8.83;3.10;;;20.50;99.90;;;;;;5099182;28;20808;-79
2021/08/08 09:27:34;;;;;;;3.80;2.60;;;20.60;99.90;;;;;;5098803;28;20465;-79
2021/08/08 09:30:02;;;;;;;4.03;2.60;;;20.60;99.90;;;;;;5097200;28;20458;-79
2021/08/08 09:32:33;;;;;;;7.73;3.23;;;20.60;99.90;;;;;;5106498;28;20465;-79
2021/08/08 09:35:09;;;;;;;9.60;3.90;;;20.70;99.90;;;;;;5096172;28;20458;-79
2021/08/08 09:37:37;;;;;;;5.80;2.60;;;20.60;99.90;;;;;;5098074;28;20809;-79
2021/08/08 09:40:13;;;;;;;8.20;2.50;;;20.60;99.90;;;;;;5096092;28;20488;-83
2021/08/08 09:42:45;;;;;;;5.60;3.23;;;20.60;99.90;;;;;;5101852;28;20505;-81
2021/08/08 09:45:14;;;;;;;7.07;3.07;;;20.70;99.90;;;;;;5093334;28;20466;-81
2021/08/08 09:47:43;;;;;;;10.33;3.17;;;20.70;99.90;;;;;;5099152;28;20579;-82
2021/08/08 09:50:14;;;;;;;8.17;3.50;;;20.70;99.90;;;;;;5100060;28;20457;-81
2021/08/08 09:52:42;;;;;;;7.07;3.50;;;20.70;99.90;;;;;;5103720;28;20887;-82
2021/08/08 09:55:19;;;;;;;7.03;3.60;;;20.70;99.90;;;;;;5099100;28;20453;-83
2021/08/08 09:57:47;;;;;;;5.87;3.33;;;20.70;99.90;;;;;;5099982;28;20460;-81
2021/08/08 10:00:24;;;;;;;7.50;3.53;;;20.70;99.90;;;;;;5095933;28;20505;-80
2021/08/08 10:02:51;;;;;;;6.60;2.57;;;20.80;99.90;;;;;;5101093;28;20496;-80
2021/08/08 10:05:20;;;;;;;7.50;2.87;;;20.70;99.90;;;;;;5101173;28;20460;-84
2021/08/08 10:07:47;;;;;;;4.60;2.80;;;20.80;99.90;;;;;;5096327;28;20468;-80
2021/08/08 10:10:15;;;;;;;4.53;2.83;;;20.70;99.90;;;;;;5096114;28;20457;-79
2021/08/08 10:13:23;;;;;;;9.07;3.00;;;20.80;99.90;;;;;;5098740;28;20495;-79
2021/08/08 10:15:52;;;;;;;6.10;2.50;;;20.80;99.90;;;;;;5103011;28;21021;-79
2021/08/08 10:18:23;;;;;;;5.27;2.93;;;20.80;99.90;;;;;;5104194;28;20794;-79
2021/08/08 10:20:51;;;;;;;4.13;2.63;;;20.80;99.90;;;;;;5103089;28;20452;-79
2021/08/08 10:23:19;;;;;;;8.40;2.80;;;20.90;99.90;;;;;;5092928;28;20462;-79
2021/08/08 10:25:47;;;;;;;4.70;2.87;;;20.90;99.90;;;;;;5099369;28;20457;-78
2021/08/08 10:28:16;;;;;;;10.37;3.23;;;21.00;99.90;;;;;;5102363;28;21112;-79
2021/08/08 10:30:44;;;;;;;5.37;2.93;;;21.00;99.90;;;;;;5100228;28;20454;-79
2021/08/08 10:33:11;;;;;;;7.33;3.90;;;21.00;99.90;;;;;;5106986;28;20546;-79
2021/08/08 10:35:39;;;;;;;3.40;2.43;;;21.00;99.90;;;;;;5099015;28;20937;-79
2021/08/08 10:38:08;;;;;;;6.50;3.10;;;21.00;99.90;;;;;;5097382;28;20948;-79
2021/08/08 10:40:37;;;;;;;4.43;2.93;;;21.00;99.90;;;;;;5100357;28;20482;-78
2021/08/08 10:43:05;;;;;;;6.80;3.43;;;21.00;99.90;;;;;;5102032;28;20476;-79
2021/08/08 10:45:34;;;;;;;4.40;2.67;;;21.00;99.90;;;;;;5092584;28;20960;-80
2021/08/08 10:48:03;;;;;;;3.67;2.90;;;21.00;99.90;;;;;;5100648;28;20449;-79
2021/08/08 10:50:38;;;;;;;8.43;2.17;;;21.10;99.90;;;;;;5097634;28;20816;-79
2021/08/08 10:53:06;;;;;;;4.07;3.10;;;21.10;99.90;;;;;;5099743;28;20491;-79
2021/08/08 10:55:35;;;;;;;7.60;2.80;;;21.10;99.90;;;;;;5095835;28;20458;-80
2021/08/08 10:58:15;;;;;;;4.53;3.13;;;21.20;99.90;;;;;;5101743;28;20457;-78
2021/08/08 11:00:43;;;;;;;4.13;2.67;;;21.30;99.90;;;;;;5100911;28;20548;-79
2021/08/08 11:03:12;;;;;;;2.90;2.60;;;21.30;99.90;;;;;;5101565;28;20476;-80
2021/08/08 11:05:51;;;;;;;3.23;2.90;;;21.30;99.90;;;;;;5099301;28;20841;-79
2021/08/08 11:08:23;;;;;;;4.80;2.43;;;21.20;99.90;;;;;;5098033;28;20454;-80
2021/08/08 11:10:50;;;;;;;7.87;2.67;;;21.20;99.90;;;;;;5102655;28;20461;-80
2021/08/08 11:13:22;;;;;;;4.53;2.80;;;21.20;99.90;;;;;;5100811;28;21031;-79
2021/08/08 11:15:49;;;;;;;7.70;3.40;;;21.20;99.90;;;;;;5094731;28;20464;-78
2021/08/08 11:18:17;;;;;;;6.17;3.37;;;21.30;99.90;;;;;;5103128;28;20496;-78
2021/08/08 11:20:44;;;;;;;7.73;3.07;;;21.30;99.90;;;;;;5109283;28;20460;-79
2021/08/08 11:23:12;;;;;;;9.40;2.40;;;21.30;99.90;;;;;;5101251;28;20847;-78
2021/08/08 11:25:42;;;;;;;7.07;2.80;;;21.30;99.90;;;;;;5097593;28;20456;-79
2021/08/08 11:28:11;;;;;;;4.03;2.57;;;21.40;99.90;;;;;;5100014;28;21070;-79
2021/08/08 11:30:42;;;;;;;6.63;2.60;;;21.40;99.90;;;;;;5105236;28;20463;-80
2021/08/08 11:33:11;;;;;;;3.53;2.73;;;21.50;99.90;;;;;;5102174;28;20579;-79
2021/08/08 11:35:39;;;;;;;4.07;2.33;;;21.70;99.90;;;;;;5103309;28;20483;-79
2021/08/08 11:38:19;;;;;;;5.40;2.27;;;21.70;99.90;;;;;;5099863;28;20456;-80
2021/08/08 11:40:48;;;;;;;5.50;2.60;;;21.70;99.90;;;;;;5100244;28;20834;-79
2021/08/08 11:43:16;;;;;;;4.30;2.50;;;21.80;99.90;;;;;;5098042;28;20557;-81
2021/08/08 11:45:46;;;;;;;3.33;2.77;;;21.70;99.90;;;;;;5105400;28;20947;-78
2021/08/08 11:48:29;;;;;;;4.10;2.60;;;21.80;99.90;;;;;;5102229;28;20461;-79
2021/08/08 11:50:57;;;;;;;4.83;2.40;;;21.80;99.90;;;;;;5101525;28;20846;-79
2021/08/08 11:53:32;;;;;;;4.53;2.60;;;21.80;99.90;;;;;;5099767;28;20496;-81
2021/08/08 11:56:13;;;;;;;6.50;2.53;;;21.90;99.90;;;;;;5101952;28;20480;-81
2021/08/08 11:58:45;;;;;;;4.20;2.73;;;22.00;99.90;;;;;;5104817;28;20452;-81
2021/08/08 12:01:12;;;;;;;3.40;2.30;;;22.10;99.90;;;;;;5102395;28;20453;-80
2021/08/08 12:03:39;;;;;;;4.70;2.57;;;22.20;99.90;;;;;;5105584;28;20496;-80
2021/08/08 12:06:07;;;;;;;5.40;2.50;;;22.20;99.90;;;;;;5109277;28;20543;-80
2021/08/08 12:08:34;;;;;;;8.77;2.53;;;22.30;99.90;;;;;;5105482;28;20471;-80
2021/08/08 12:11:02;;;;;;;6.60;2.57;;;22.40;99.90;;;;;;5105016;28;20455;-80
2021/08/08 12:13:30;;;;;;;5.37;2.50;;;22.50;99.90;;;;;;5103276;28;20537;-81
2021/08/08 12:15:57;;;;;;;5.33;2.63;;;22.60;99.90;;;;;;5103306;28;20492;-81
2021/08/08 12:18:28;;;;;;;6.43;2.30;;;22.70;99.90;;;;;;5107908;28;20445;-83
2021/08/08 12:20:55;;;;;;;5.57;2.13;;;22.70;99.90;;;;;;5106375;28;20474;-81
2021/08/08 12:23:25;;;;;;;3.20;2.13;;;22.70;99.90;;;;;;5107487;28;21035;-81
2021/08/08 12:25:58;;;;;;;6.97;2.50;;;22.70;99.90;;;;;;5100827;28;20507;-81
2021/08/08 12:28:26;;;;;;;7.10;2.70;;;22.70;99.80;;;;;;5103462;28;20465;-82
2021/08/08 12:31:05;;;;;;;3.20;2.03;;;22.70;99.80;;;;;;5103373;28;20468;-82
2021/08/08 12:33:32;;;;;;;2.40;2.10;;;22.70;99.70;;;;;;5103524;28;20477;-83
2021/08/08 12:36:09;;;;;;;3.43;2.37;;;22.70;99.60;;;;;;5107030;28;20473;-83
2021/08/08 12:38:47;;;;;;;8.07;1.97;;;22.70;99.20;;;;;;5102571;28;20473;-81
2021/08/08 12:41:14;;;;;;;7.93;3.27;;;22.60;99.20;;;;;;5109753;28;20987;-81
2021/08/08 12:43:41;;;;;;;2.10;1.90;;;22.50;99.30;;;;;;5107431;28;20459;-81
2021/08/08 12:46:11;;;;;;;6.57;2.33;;;22.50;99.30;;;;;;5106049;28;20510;-81
2021/08/08 12:48:38;;;;;;;6.43;2.60;;;22.40;99.60;;;;;;5104123;28;20460;-82
2021/08/08 12:51:05;;;;;;;4.10;2.10;;;22.40;99.90;;;;;;5101111;28;20489;-80
2021/08/08 12:53:32;;;;;;;9.53;2.30;;;22.40;99.90;;;;;;5110260;28;20484;-82
2021/08/08 12:55:59;;;;;;;2.20;2.00;;;22.40;99.90;;;;;;5105050;28;20797;-80